Time;durP1;ratioP1;P1;durP2;ratioP2;P2;SDS_P1;SDS_P2;PMS_P1;PMS_P2;Temp;Humidity;BMP_temperature;BMP_pressure;BME280_temperature;BME280_humidity;BME280_pressure;Samples;Min_cycle;Max_cycle;Signal;HPM_P1;HPM_P2
2023/03/29 00:00:21;;;;;;;;;13.50;12.50;;;;;13.07;50.98;101257.47;5073868;27;46656;-70
2023/03/29 00:02:47;;;;;;;;;11.00;9.00;;;;;13.03;50.28;101250.19;5069850;27;45416;-69
2023/03/29 00:05:15;;;;;;;;;16.75;13.50;;;;;12.98;50.09;101249.19;5085563;28;45247;-68
2023/03/29 00:07:41;;;;;;;;;9.75;9.75;;;;;12.95;50.89;101246.41;5087461;27;45272;-69
2023/03/29 00:10:09;;;;;;;;;11.75;10.75;;;;;12.98;50.75;101233.09;5089493;27;46640;-69
2023/03/29 00:12:38;;;;;;;;;10.25;9.50;;;;;12.86;50.17;101231.03;5085053;28;45159;-69
2023/03/29 00:15:06;;;;;;;;;10.00;6.75;;;;;12.93;50.96;101241.03;5079855;28;44941;-69
2023/03/29 00:17:31;;;;;;;;;14.75;9.50;;;;;12.90;51.54;101241.88;5089991;27;45270;-69
2023/03/29 00:19:57;;;;;;;;;12.00;9.75;;;;;12.88;51.02;101238.22;5086668;28;46288;-68
2023/03/29 00:22:23;;;;;;;;;14.25;11.00;;;;;12.90;50.35;101238.25;5077706;28;45539;-68
2023/03/29 00:24:52;;;;;;;;;11.75;11.75;;;;;12.93;50.98;101238.34;5091276;27;45111;-68
2023/03/29 00:27:18;;;;;;;;;12.00;11.75;;;;;12.96;50.27;101232.16;5089944;28;45213;-67
2023/03/29 00:29:44;;;;;;;;;12.75;10.00;;;;;12.93;50.38;101230.28;5087043;27;45550;-69
2023/03/29 00:32:09;;;;;;;;;12.75;10.50;;;;;12.98;49.77;101230.41;5074873;27;45414;-68
2023/03/29 00:34:35;;;;;;;;;12.00;8.00;;;;;13.01;49.87;101233.16;5075100;27;45376;-69
2023/03/29 00:37:01;;;;;;;;;14.00;11.75;;;;;13.04;50.21;101230.56;5078491;27;45513;-68
2023/03/29 00:39:27;;;;;;;;;13.75;11.00;;;;;13.01;49.86;101227.81;5091236;27;45417;-69
2023/03/29 00:41:53;;;;;;;;;8.50;8.50;;;;;13.09;49.59;101239.63;5079004;27;45370;-69
2023/03/29 00:44:55;;;;;;;;;13.75;11.00;;;;;13.08;49.78;101230.69;5081996;28;44929;-69
2023/03/29 00:47:33;;;;;;;;;9.75;7.75;;;;;13.08;49.25;101230.69;5086845;28;45187;-69
2023/03/29 00:50:06;;;;;;;;;11.25;11.25;;;;;13.06;49.90;101228.81;5088953;27;45286;-68
2023/03/29 00:52:33;;;;;;;;;13.00;11.50;;;;;12.96;49.94;101194.59;5066658;27;45211;-67
2023/03/29 00:55:05;;;;;;;;;11.00;10.00;;;;;13.09;49.33;101229.78;5081311;28;45093;-68
2023/03/29 00:57:32;;;;;;;;;10.75;9.00;;;;;13.13;49.41;101233.44;5069253;27;45664;-69
2023/03/29 01:00:00;;;;;;;;;10.00;10.00;;;;;13.17;49.01;101227.31;5086447;28;46478;-68
2023/03/29 01:02:33;;;;;;;;;9.00;9.00;;;;;13.12;49.15;101222.72;5067469;27;45753;-68
2023/03/29 01:05:07;;;;;;;;;12.25;12.00;;;;;13.18;49.10;101217.47;5085421;27;45446;-69
2023/03/29 01:07:40;;;;;;;;;14.25;10.00;;;;;13.15;49.06;101206.66;5090415;27;45228;-68
2023/03/29 01:10:17;;;;;;;;;9.50;8.50;;;;;13.09;48.61;101202.06;5090800;28;46332;-66
2023/03/29 01:12:48;;;;;;;;;10.00;10.00;;;;;13.08;48.33;101198.50;5076635;28;45410;-67
2023/03/29 01:15:18;;;;;;;;;12.00;11.75;;;;;13.18;49.06;101210.34;5066546;27;45634;-69
2023/03/29 01:17:48;;;;;;;;;12.00;10.25;;;;;13.14;48.23;101204.88;5073941;27;45392;-67
2023/03/29 01:20:24;;;;;;;;;9.50;8.25;;;;;13.14;48.80;101213.81;5081184;28;45567;-68
2023/03/29 01:23:12;;;;;;;;;9.50;8.75;;;;;13.14;47.99;101215.59;5076161;27;45521;-68
2023/03/29 01:25:44;;;;;;;;;11.75;10.00;;;;;13.13;48.42;101203.03;5083721;28;45541;-69
2023/03/29 01:28:14;;;;;;;;;8.00;7.75;;;;;13.12;48.36;101202.16;5088260;28;45281;-68
2023/03/29 01:30:47;;;;;;;;;10.00;8.50;;;;;13.15;48.53;101204.91;5088977;27;46506;-67
2023/03/29 01:33:22;;;;;;;;;9.25;9.25;;;;;13.02;48.53;101189.41;5080200;28;44854;-68
2023/03/29 01:36:06;;;;;;;;;8.50;8.50;;;;;13.05;48.59;101195.72;5086660;27;45659;-67
2023/03/29 01:38:58;;;;;;;;;15.25;10.00;;;;;12.75;48.59;101150.31;5078239;27;45724;-67
2023/03/29 01:41:33;;;;;;;;;11.25;9.00;;;;;13.00;49.05;101191.13;5081028;28;45160;-69
2023/03/29 01:44:06;;;;;;;;;14.50;8.75;;;;;12.98;48.55;101184.81;5078136;27;45354;-69
2023/03/29 01:46:41;;;;;;;;;10.50;9.50;;;;;12.69;49.02;101152.84;5079189;28;45338;-69
2023/03/29 01:49:33;;;;;;;;;4.00;4.00;;;;;12.95;49.16;101193.72;5086863;28;45336;-68
2023/03/29 01:52:37;;;;;;;;;17.25;12.50;;;;;12.99;49.09;101198.25;5087542;28;45608;-69
2023/03/29 01:55:17;;;;;;;;;10.00;9.00;;;;;13.00;49.22;101205.44;5057160;28;45292;-68
2023/03/29 01:57:46;;;;;;;;;7.00;6.25;;;;;12.88;48.99;101172.97;5079664;28;45412;-69
2023/03/29 02:00:15;;;;;;;;;8.75;7.50;;;;;12.87;49.51;101164.03;5073085;28;45415;-69
2023/03/29 02:02:44;;;;;;;;;9.50;8.00;;;;;13.08;48.87;101194.88;5078988;28;45287;-68
2023/03/29 02:05:13;;;;;;;;;10.00;8.00;;;;;13.07;49.22;101203.81;5084385;28;45295;-68
2023/03/29 02:07:42;;;;;;;;;14.25;10.25;;;;;12.99;49.26;101187.53;5068243;28;45453;-69
2023/03/29 02:10:10;;;;;;;;;10.00;8.25;;;;;13.08;49.45;101197.56;5083845;28;45141;-66
2023/03/29 02:12:37;;;;;;;;;14.75;8.50;;;;;13.03;49.79;101194.81;5075607;27;45683;-68
2023/03/29 02:15:05;;;;;;;;;9.25;9.25;;;;;13.05;49.23;101206.47;5075669;27;45425;-69
2023/03/29 02:17:31;;;;;;;;;7.50;7.50;;;;;12.96;49.32;101190.13;5088234;27;45070;-68
2023/03/29 02:19:59;;;;;;;;;9.75;7.00;;;;;13.03;49.60;101181.38;5085439;27;45523;-69
2023/03/29 02:22:36;;;;;;;;;8.00;7.00;;;;;13.01;48.79;101188.47;5083629;27;45452;-70
2023/03/29 02:25:05;;;;;;;;;9.50;9.00;;;;;12.99;48.70;101198.25;5090792;28;45173;-67
2023/03/29 02:27:30;;;;;;;;;11.75;10.00;;;;;12.90;49.15;101180.19;5077856;28;45566;-68
2023/03/29 02:29:57;;;;;;;;;11.00;8.75;;;;;12.60;49.04;101116.00;5089874;28;44995;-69
2023/03/29 02:32:39;;;;;;;;;9.75;7.75;;;;;12.89;49.57;101166.75;5067509;27;45563;-68
2023/03/29 02:35:13;;;;;;;;;10.00;8.50;;;;;12.89;49.91;101153.34;5066223;28;45502;-67
2023/03/29 02:37:43;;;;;;;;;9.00;7.00;;;;;12.95;49.45;101158.84;5073246;28;45296;-67
2023/03/29 02:40:11;;;;;;;;;8.00;8.00;;;;;12.99;49.00;101168.75;5086767;28;45219;-69
2023/03/29 02:42:39;;;;;;;;;9.75;7.75;;;;;13.01;49.97;101169.69;5083143;27;46332;-69
2023/03/29 02:45:07;;;;;;;;;10.75;9.00;;;;;13.03;50.38;101164.38;5092831;28;45184;-69
2023/03/29 02:47:40;;;;;;;;;9.25;8.75;;;;;12.97;49.99;101143.69;5090755;27;45016;-69
2023/03/29 02:50:07;;;;;;;;;7.25;7.25;;;;;13.05;49.96;101149.19;5080878;27;44950;-69
2023/03/29 02:52:39;;;;;;;;;10.00;8.50;;;;;13.04;49.37;101144.72;5067652;28;46207;-68
2023/03/29 02:55:10;;;;;;;;;8.75;8.00;;;;;13.09;49.48;101153.78;5079344;28;45027;-68
2023/03/29 02:57:38;;;;;;;;;8.75;7.75;;;;;12.99;49.94;101133.00;5076133;28;45504;-70
2023/03/29 03:00:08;;;;;;;;;10.75;9.00;;;;;13.06;49.76;101151.03;5087740;28;45158;-69
2023/03/29 03:02:34;;;;;;;;;9.25;9.25;;;;;13.09;49.80;101143.06;5074679;27;45415;-69
2023/03/29 03:04:59;;;;;;;;;10.75;8.00;;;;;13.05;49.38;101127.75;5084916;27;45409;-67
2023/03/29 03:07:25;;;;;;;;;10.50;10.00;;;;;13.10;50.11;101150.25;5075575;27;45455;-68
2023/03/29 03:09:50;;;;;;;;;9.75;9.75;;;;;12.93;50.22;101120.34;5086583;27;45433;-67
2023/03/29 03:12:16;;;;;;;;;11.50;9.00;;;;;12.96;50.18;101127.56;5081091;28;46075;-68
2023/03/29 03:14:42;;;;;;;;;14.00;9.75;;;;;13.11;49.95;101159.19;5071087;27;45428;-68
2023/03/29 03:17:07;;;;;;;;;8.50;8.00;;;;;13.01;50.07;101133.94;5087397;27;45206;-68
2023/03/29 03:19:32;;;;;;;;;8.75;6.75;;;;;13.07;50.30;101150.16;5085119;28;45645;-69
2023/03/29 03:21:58;;;;;;;;;8.50;8.50;;;;;13.09;49.71;101154.69;5089898;28;45706;-68
2023/03/29 03:24:24;;;;;;;;;8.00;8.00;;;;;13.07;50.16;101150.16;5085163;28;45758;-68
2023/03/29 03:26:49;;;;;;;;;8.25;7.75;;;;;13.05;49.84;101136.72;5078891;28;45393;-69
2023/03/29 03:29:15;;;;;;;;;8.00;8.00;;;;;13.04;49.92;101124.16;5061013;28;45440;-68
2023/03/29 03:31:40;;;;;;;;;11.00;9.25;;;;;12.97;50.52;101110.56;5079435;27;47228;-69
2023/03/29 03:34:09;;;;;;;;;10.00;9.00;;;;;13.05;50.58;101128.66;5074683;28;45331;-69
2023/03/29 03:36:35;;;;;;;;;11.50;9.00;;;;;13.07;50.50;101147.50;5100708;27;45329;-69
2023/03/29 03:39:04;;;;;;;;;10.00;8.75;;;;;12.96;51.22;101128.44;5077361;28;45540;-70
2023/03/29 03:41:30;;;;;;;;;9.75;9.75;;;;;13.01;51.21;101139.28;5084384;27;45276;-69
2023/03/29 03:43:55;;;;;;;;;8.25;8.25;;;;;13.09;51.39;101143.06;5082307;27;45230;-69
2023/03/29 03:46:20;;;;;;;;;8.25;7.75;;;;;13.03;51.12;101124.13;5077648;28;45091;-69
2023/03/29 03:48:46;;;;;;;;;8.00;6.00;;;;;13.12;51.37;101144.91;5090044;27;45059;-68
2023/03/29 03:51:12;;;;;;;;;9.00;7.75;;;;;13.09;51.28;101135.00;5084831;27;45575;-68
2023/03/29 03:53:38;;;;;;;;;16.00;11.50;;;;;13.13;51.32;101147.59;5091404;28;45109;-69
2023/03/29 03:56:07;;;;;;;;;10.50;9.25;;;;;13.08;50.57;101138.53;5076224;27;45565;-69
2023/03/29 03:58:36;;;;;;;;;8.50;7.25;;;;;13.03;51.61;101119.69;5087946;28;45079;-69
2023/03/29 04:01:03;;;;;;;;;9.25;8.00;;;;;13.14;51.82;101133.31;5087390;27;46257;-70
2023/03/29 04:03:28;;;;;;;;;9.75;9.00;;;;;13.07;51.59;101126.03;5078472;28;45270;-69
2023/03/29 04:05:54;;;;;;;;;10.50;9.50;;;;;13.16;51.73;101149.47;5084950;28;45131;-69
2023/03/29 04:08:21;;;;;;;;;8.00;8.00;;;;;13.04;51.88;101121.47;5089134;27;45261;-69
2023/03/29 04:10:55;;;;;;;;;12.50;8.00;;;;;13.17;51.86;101136.09;5075063;27;45504;-68
2023/03/29 04:13:21;;;;;;;;;7.00;7.00;;;;;13.06;51.48;101117.06;5078271;28;45400;-68
2023/03/29 04:15:48;;;;;;;;;9.50;7.50;;;;;13.12;50.98;101112.72;5086694;28;45311;-69
2023/03/29 04:18:14;;;;;;;;;11.50;9.00;;;;;13.20;51.53;101133.47;5074994;28;45581;-70
2023/03/29 04:20:40;;;;;;;;;11.50;9.00;;;;;13.22;51.91;101126.34;5074084;27;46510;-69
2023/03/29 04:23:05;;;;;;;;;9.00;9.00;;;;;13.17;51.96;101113.72;5082668;28;48944;-68
2023/03/29 04:25:31;;;;;;;;;13.25;10.50;;;;;13.19;51.30;101106.59;5089258;27;45809;-69
2023/03/29 04:27:56;;;;;;;;;10.00;7.50;;;;;13.28;51.96;101133.59;5086768;28;45146;-69
2023/03/29 04:30:21;;;;;;;;;7.75;7.75;;;;;13.26;52.59;101125.56;5075699;27;45553;-69
2023/03/29 04:32:47;;;;;;;;;13.50;9.00;;;;;13.22;51.49;101117.41;5076113;27;45465;-69
2023/03/29 04:35:12;;;;;;;;;9.00;8.50;;;;;13.30;51.46;101130.97;5080845;27;45385;-68
2023/03/29 04:37:39;;;;;;;;;9.25;9.00;;;;;13.28;51.53;101126.50;5077087;28;45330;-68
2023/03/29 04:40:08;;;;;;;;;10.00;8.75;;;;;13.32;51.36;101138.22;5090942;27;45352;-69
2023/03/29 04:42:33;;;;;;;;;10.25;8.75;;;;;13.31;51.83;101124.75;5089086;27;44947;-70
2023/03/29 04:44:59;;;;;;;;;6.50;6.00;;;;;13.34;52.32;101119.47;5082657;27;45096;-69
2023/03/29 04:47:30;;;;;;;;;8.50;7.50;;;;;13.28;52.76;101109.47;5079600;27;45113;-69
2023/03/29 04:49:56;;;;;;;;;10.25;9.25;;;;;13.36;52.70;101121.28;5068268;28;45555;-69
2023/03/29 04:52:21;;;;;;;;;9.50;9.50;;;;;13.38;52.61;101115.97;5065385;27;45593;-69
2023/03/29 04:54:46;;;;;;;;;9.00;8.50;;;;;13.40;52.60;101117.81;5072774;27;45429;-69
2023/03/29 04:57:12;;;;;;;;;10.00;7.00;;;;;13.34;52.39;101108.75;5084245;27;45214;-70
2023/03/29 04:59:37;;;;;;;;;9.50;9.50;;;;;13.41;52.37;101107.97;5081151;28;46049;-70
2023/03/29 05:02:03;;;;;;;;;6.25;6.25;;;;;13.33;52.25;101102.47;5086967;28;45457;-68
2023/03/29 05:04:29;;;;;;;;;12.25;10.75;;;;;13.32;52.73;101111.38;5086662;27;45147;-69
2023/03/29 05:06:56;;;;;;;;;9.50;9.00;;;;;13.35;52.57;101118.63;5083790;28;45290;-69
2023/03/29 05:09:22;;;;;;;;;10.75;10.00;;;;;13.31;52.78;101120.25;5084074;28;45700;-69
2023/03/29 05:11:49;;;;;;;;;7.00;6.75;;;;;13.36;53.34;101134.72;5072717;28;45328;-68
2023/03/29 05:14:14;;;;;;;;;9.50;7.75;;;;;13.32;54.10;101114.06;5074773;28;45481;-68
2023/03/29 05:16:41;;;;;;;;;10.25;8.50;;;;;13.47;53.77;101126.00;5071821;28;46372;-67
2023/03/29 05:19:08;;;;;;;;;12.00;7.50;;;;;13.43;54.05;101122.38;5082961;28;46231;-68
2023/03/29 05:21:34;;;;;;;;;15.00;8.00;;;;;13.44;56.66;101129.53;5089221;27;44968;-68
2023/03/29 05:24:00;;;;;;;;;6.67;6.00;;;;;13.42;57.97;101125.91;5087371;27;45111;-68
2023/03/29 05:26:26;;;;;;;;;4.00;4.00;;;;;13.42;58.74;101129.50;5084815;28;45366;-69
2023/03/29 05:28:52;;;;;;;;;8.50;6.00;;;;;13.41;59.96;101122.31;5080340;27;45518;-69
2023/03/29 05:31:18;;;;;;;;;7.33;5.33;;;;;13.33;60.97;101118.56;5072746;28;45410;-69
2023/03/29 05:33:46;;;;;;;;;7.75;7.75;;;;;13.43;60.67;101123.25;5075619;27;45519;-69
2023/03/29 05:36:14;;;;;;;;;6.00;6.00;;;;;13.36;60.52;101102.50;5068036;27;46618;-69
2023/03/29 05:38:41;;;;;;;;;7.75;6.50;;;;;13.48;60.74;101104.56;5079374;28;46765;-70
2023/03/29 05:41:07;;;;;;;;;9.00;7.00;;;;;13.49;60.71;101110.84;5088554;28;44960;-69
2023/03/29 05:43:33;;;;;;;;;5.67;5.00;;;;;13.33;60.38;101086.38;5075787;27;45400;-69
2023/03/29 05:45:59;;;;;;;;;6.25;5.00;;;;;13.50;60.11;101109.97;5087996;28;45331;-68
2023/03/29 05:48:26;;;;;;;;;9.00;7.75;;;;;13.53;59.27;101108.25;5076508;27;46641;-69
2023/03/29 05:50:53;;;;;;;;;18.00;14.75;;;;;13.51;59.51;101109.06;5056466;28;45459;-69
2023/03/29 05:53:23;;;;;;;;;10.25;8.00;;;;;13.54;59.37;101118.09;5070894;28;45126;-70
2023/03/29 05:55:48;;;;;;;;;12.25;8.75;;;;;13.54;59.08;101118.09;5072407;28;45183;-70
2023/03/29 05:58:16;;;;;;;;;9.25;7.00;;;;;13.49;59.21;101124.25;5056023;28;46985;-68
2023/03/29 06:00:42;;;;;;;;;8.50;6.75;;;;;13.43;59.13;101122.38;5056452;28;45084;-70
2023/03/29 06:03:16;;;;;;;;;12.50;8.50;;;;;13.39;58.72;101117.78;5063149;28;45363;-69
2023/03/29 06:05:41;;;;;;;;;11.50;10.50;;;;;13.44;58.38;101122.38;5070911;28;45189;-68
2023/03/29 06:08:07;;;;;;;;;14.25;10.00;;;;;13.48;57.57;101119.75;5069810;28;47657;-69
2023/03/29 06:10:35;;;;;;;;;5.25;5.25;;;;;13.41;58.06;101114.28;5066392;28;44973;-69
2023/03/29 06:13:00;;;;;;;;;8.50;8.50;;;;;13.47;57.65;101115.28;5060806;28;45169;-69
2023/03/29 06:15:26;;;;;;;;;11.00;11.00;;;;;13.41;57.62;101100.84;5070051;28;51576;-69
2023/03/29 06:17:51;;;;;;;;;10.00;10.00;;;;;13.35;58.13;101089.09;5064929;28;45681;-67
2023/03/29 06:20:17;;;;;;;;;8.00;7.00;;;;;13.40;57.69;101098.13;5067417;28;45090;-68
2023/03/29 06:22:45;;;;;;;;;9.75;8.50;;;;;13.34;58.25;101093.53;5067262;28;45335;-68
2023/03/29 06:25:11;;;;;;;;;9.75;8.75;;;;;13.48;58.59;101109.00;5060669;28;44937;-69
2023/03/29 06:27:36;;;;;;;;;17.25;10.25;;;;;13.47;57.69;101104.53;5059850;28;46028;-69
2023/03/29 06:30:03;;;;;;;;;13.25;10.25;;;;;13.48;57.90;101112.63;5062437;28;45163;-69
2023/03/29 06:32:29;;;;;;;;;9.25;8.25;;;;;13.53;57.89;101107.31;5063483;28;45083;-73
2023/03/29 06:34:55;;;;;;;;;12.00;10.50;;;;;13.56;58.19;101102.94;5068333;28;45055;-71
2023/03/29 06:37:22;;;;;;;;;14.00;11.75;;;;;13.34;58.00;101058.66;5060095;28;47123;-68
2023/03/29 06:39:51;;;;;;;;;8.50;8.50;;;;;13.43;58.21;101076.72;5049002;28;45683;-69
2023/03/29 06:42:21;;;;;;;;;12.00;11.00;;;;;13.59;58.78;101107.44;5069382;28;45515;-69
2023/03/29 06:44:47;;;;;;;;;10.75;8.25;;;;;13.59;58.40;101121.75;5063009;28;45441;-69
2023/03/29 06:47:15;;;;;;;;;12.50;10.25;;;;;13.59;58.17;101113.72;5048522;28;45957;-69
2023/03/29 06:49:41;;;;;;;;;9.25;8.75;;;;;13.48;58.71;101091.16;5049892;28;45350;-69
2023/03/29 06:52:06;;;;;;;;;10.25;10.25;;;;;13.52;58.27;101097.47;5047510;28;45372;-69
2023/03/29 06:54:32;;;;;;;;;16.75;13.00;;;;;13.65;58.73;101112.94;5047390;28;45340;-70
2023/03/29 06:56:58;;;;;;;;;13.50;10.50;;;;;13.71;58.69;101104.09;5054973;28;46426;-71
2023/03/29 06:59:24;;;;;;;;;9.75;9.25;;;;;13.66;58.44;101093.28;5049380;28;45541;-70
2023/03/29 07:01:51;;;;;;;;;9.50;7.25;;;;;13.77;58.10;101115.84;5046115;28;45658;-69
2023/03/29 07:04:18;;;;;;;;;13.75;9.25;;;;;13.73;58.69;101097.88;5050448;28;45514;-70
2023/03/29 07:06:47;;;;;;;;;7.25;7.25;;;;;13.85;58.07;101112.44;5043509;28;45700;-68
2023/03/29 07:09:15;;;;;;;;;14.50;12.25;;;;;13.87;58.55;101105.28;5047335;28;45595;-69
2023/03/29 07:11:41;;;;;;;;;14.75;11.00;;;;;13.88;58.87;101108.00;5049839;28;44803;-68
2023/03/29 07:14:07;;;;;;;;;8.00;7.25;;;;;13.93;57.87;101105.41;5053871;28;45433;-69
2023/03/29 07:16:36;;;;;;;;;12.00;10.50;;;;;14.03;58.26;101118.13;5054034;28;45423;-69
2023/03/29 07:19:02;;;;;;;;;9.50;9.00;;;;;14.06;58.07;101107.44;5053265;28;45590;-69
2023/03/29 07:21:29;;;;;;;;;21.25;12.00;;;;;14.12;58.34;101103.94;5049622;28;45534;-69
2023/03/29 07:23:55;;;;;;;;;12.75;10.00;;;;;14.15;58.02;101117.44;5053081;28;45498;-69
2023/03/29 07:26:21;;;;;;;;;11.00;10.00;;;;;14.20;57.50;101113.06;5073936;28;45369;-68
2023/03/29 07:28:47;;;;;;;;;7.75;6.25;;;;;14.20;57.46;101105.00;5046552;28;45316;-69
2023/03/29 07:31:14;;;;;;;;;17.50;13.25;;;;;14.26;57.43;101117.66;5048749;28;45607;-70
2023/03/29 07:33:40;;;;;;;;;13.00;10.75;;;;;14.28;57.51;101113.19;5054553;28;45588;-68
2023/03/29 07:36:06;;;;;;;;;13.50;12.75;;;;;14.18;57.55;101102.28;5052146;28;47778;-69
2023/03/29 07:38:31;;;;;;;;;14.50;9.50;;;;;14.23;57.40;101115.78;5053566;28;45386;-67
2023/03/29 07:40:57;;;;;;;;;15.25;12.00;;;;;14.26;57.76;101115.84;5048373;28;45685;-70
2023/03/29 07:43:23;;;;;;;;;14.50;12.25;;;;;14.26;57.65;101112.28;5062161;28;45564;-67
2023/03/29 07:45:50;;;;;;;;;13.75;10.25;;;;;14.29;57.65;101113.22;5046020;28;45697;-68
2023/03/29 07:48:16;;;;;;;;;14.00;10.50;;;;;14.32;58.02;101088.16;5049368;28;45573;-67
2023/03/29 07:50:42;;;;;;;;;15.00;11.75;;;;;14.41;57.47;101099.06;5045004;28;45823;-66
2023/03/29 07:53:08;;;;;;;;;13.50;11.75;;;;;14.46;57.04;101102.75;5050988;28;45402;-67
2023/03/29 07:55:33;;;;;;;;;11.50;10.50;;;;;14.47;57.11;101096.50;5051342;28;46713;-67
2023/03/29 07:57:59;;;;;;;;;13.25;12.25;;;;;14.54;57.19;101108.25;5049231;28;45644;-66
2023/03/29 08:00:24;;;;;;;;;13.75;12.75;;;;;14.46;57.21;101086.59;5043350;28;45411;-67
2023/03/29 08:02:54;;;;;;;;;12.25;12.25;;;;;14.57;57.19;101109.19;5059685;28;45171;-68
2023/03/29 08:05:23;;;;;;;;;5.00;2.00;;;;;14.63;56.95;101112.91;5065811;28;46246;-67
2023/03/29 08:07:49;;;;;;;;;10.50;8.75;;;;;14.61;56.94;101115.56;5059126;28;45421;-68
2023/03/29 08:10:17;;;;;;;;;15.25;12.00;;;;;14.68;57.11;101121.94;5060577;28;45135;-66
2023/03/29 08:12:44;;;;;;;;;14.25;11.00;;;;;14.71;56.84;101109.44;5046370;28;45579;-67
2023/03/29 08:15:12;;;;;;;;;12.25;11.50;;;;;14.74;56.51;101114.84;5049381;28;46216;-67
2023/03/29 08:17:38;;;;;;;;;30.75;27.50;;;;;14.76;56.92;101114.88;5037597;28;45241;-66
2023/03/29 08:20:05;;;;;;;;;10.75;10.00;;;;;14.53;56.37;101061.63;5048090;28;45521;-66
2023/03/29 08:22:32;;;;;;;;;10.50;8.25;;;;;14.86;56.31;101108.75;5052742;28;45527;-67
2023/03/29 08:24:57;;;;;;;;;13.00;12.50;;;;;15.00;56.62;101117.03;5052133;28;45386;-67
2023/03/29 08:27:23;;;;;;;;;8.25;8.25;;;;;15.02;56.43;101112.56;5041242;28;45407;-67
2023/03/29 08:29:48;;;;;;;;;11.50;10.75;;;;;14.95;56.67;101097.25;5050740;28;45409;-67
2023/03/29 08:32:14;;;;;;;;;11.00;9.00;;;;;15.06;56.74;101119.81;5053169;28;45485;-67
2023/03/29 08:34:39;;;;;;;;;10.25;9.00;;;;;15.07;56.80;101112.66;5052808;28;45611;-66
2023/03/29 08:37:05;;;;;;;;;11.50;9.75;;;;;15.10;56.67;101100.13;5053709;28;45390;-67
2023/03/29 08:39:31;;;;;;;;;5.00;5.00;;;;;15.18;57.50;101116.41;5039392;28;45689;-67
2023/03/29 08:42:23;;;;;;;;;14.50;12.25;;;;;15.24;57.28;101115.56;5045654;28;45613;-67
2023/03/29 08:45:08;;;;;;;;;13.50;13.00;;;;;15.32;57.23;101115.66;5040874;28;47500;-67
2023/03/29 08:47:52;;;;;;;;;15.75;11.00;;;;;15.39;56.99;101105.00;5051981;28;45316;-67
2023/03/29 08:50:19;;;;;;;;;15.00;13.75;;;;;15.47;56.76;101110.47;5052537;28;45284;-67
2023/03/29 08:52:54;;;;;;;;;10.50;7.75;;;;;15.48;58.22;101098.81;5044594;28;45442;-67
2023/03/29 08:55:30;;;;;;;;;11.67;10.67;;;;;15.53;58.46;101097.06;5046601;28;46312;-67
2023/03/29 08:57:58;;;;;;;;;12.75;9.00;;;;;15.60;58.92;101092.66;5049112;28;45409;-69
2023/03/29 09:00:27;;;;;;;;;9.67;9.00;;;;;15.68;58.78;101098.16;5038249;28;46157;-69
2023/03/29 09:02:53;;;;;;;;;14.33;9.33;;;;;15.75;58.42;101098.22;5049366;28;45565;-67
2023/03/29 09:05:31;;;;;;;;;7.00;6.67;;;;;15.75;58.62;101087.44;5048151;28;46405;-68
2023/03/29 09:07:56;;;;;;;;;9.33;8.00;;;;;15.75;59.11;101098.22;5045861;28;45571;-67
2023/03/29 09:10:38;;;;;;;;;9.00;8.00;;;;;15.88;59.42;101103.78;5046661;28;45536;-67
2023/03/29 09:13:29;;;;;;;;;12.00;7.00;;;;;15.94;58.77;101110.13;5044118;28;45558;-70
2023/03/29 09:16:08;;;;;;;;;11.33;5.33;;;;;16.03;58.82;101098.53;5042090;28;45496;-70
2023/03/29 09:18:39;;;;;;;;;7.33;7.33;;;;;16.09;58.93;101103.09;5042872;28;45414;-69
2023/03/29 09:21:13;;;;;;;;;7.00;7.00;;;;;16.14;58.43;101099.53;5045166;28;45584;-75
2023/03/29 09:24:00;;;;;;;;;9.33;5.67;;;;;16.21;58.23;101089.72;5046454;28;45484;-71
2023/03/29 09:26:47;;;;;;;;;6.67;6.67;;;;;16.34;58.26;101097.00;5025280;28;48388;-71
2023/03/29 09:29:50;;;;;;;;;8.33;7.00;;;;;16.50;58.14;101089.03;5055343;28;45512;-66
2023/03/29 09:32:26;;;;;;;;;8.33;7.33;;;;;16.62;57.53;101088.25;5043868;28;45443;-64
2023/03/29 09:35:02;;;;;;;;;5.67;5.67;;;;;16.61;57.54;101068.44;5046327;28;45442;-72
2023/03/29 09:37:37;;;;;;;;;8.00;6.00;;;;;16.76;57.40;101083.81;5053453;28;47170;-67
2023/03/29 09:40:10;;;;;;;;;10.67;7.00;;;;;16.78;57.30;101082.06;5053080;28;45523;-73
2023/03/29 09:42:36;;;;;;;;;10.67;7.67;;;;;16.86;57.34;101080.34;5056822;28;45322;-70
2023/03/29 09:45:07;;;;;;;;;10.33;8.33;;;;;16.91;57.13;101085.75;5062179;28;45209;-77
2023/03/29 09:47:57;;;;;;;;;13.00;13.00;;;;;17.04;56.62;101078.63;5062438;28;45106;-79
2023/03/29 09:50:34;;;;;;;;;10.00;5.67;;;;;17.15;56.58;101082.28;5066653;28;44996;-75
2023/03/29 09:53:00;;;;;;;;;10.33;8.33;;;;;17.25;56.29;101070.59;5068306;28;45248;-78
2023/03/29 09:55:28;;;;;;;;;5.67;5.33;;;;;17.29;56.13;101060.72;5067835;28;45241;-78
2023/03/29 09:57:59;;;;;;;;;5.33;4.67;;;;;17.35;56.09;101063.44;5071248;28;45711;-74
2023/03/29 10:00:24;;;;;;;;;7.33;6.00;;;;;17.36;56.25;101056.28;5072981;28;45209;-74
2023/03/29 10:02:51;;;;;;;;;9.67;5.67;;;;;17.44;56.16;101054.47;5064593;28;45157;-79
2023/03/29 10:05:16;;;;;;;;;5.67;5.67;;;;;17.48;56.21;101048.19;5055258;28;45303;-79
2023/03/29 10:07:50;;;;;;;;;6.67;6.67;;;;;17.59;56.17;101051.81;5056355;28;45449;-79
2023/03/29 10:10:42;;;;;;;;;9.33;6.67;;;;;17.57;55.86;101031.09;5056506;28;45564;-79
2023/03/29 10:13:15;;;;;;;;;5.67;4.67;;;;;17.64;55.86;101041.94;5049477;28;45660;-78
2023/03/29 10:15:41;;;;;;;;;10.33;5.67;;;;;17.58;55.54;101017.59;5056021;28;45395;-76
2023/03/29 10:18:12;;;;;;;;;5.00;3.67;;;;;17.77;55.11;101033.81;5044647;28;45404;-79
2023/03/29 10:20:39;;;;;;;;;5.00;5.00;;;;;17.87;54.77;101027.59;5038362;28;45477;-79
2023/03/29 10:23:07;;;;;;;;;10.00;7.67;;;;;17.96;54.71;101037.50;5052900;28;45575;-74
2023/03/29 10:25:39;;;;;;;;;10.67;6.67;;;;;18.01;54.44;101033.00;5045904;28;45431;-76
2023/03/29 10:28:19;;;;;;;;;7.00;4.00;;;;;17.94;53.85;100996.94;5053287;28;46598;-72
2023/03/29 10:30:53;;;;;;;;;6.33;3.00;;;;;18.14;53.78;101028.50;5051046;28;46237;-78
2023/03/29 10:33:22;;;;;;;;;6.00;3.00;;;;;18.20;53.24;101023.09;5048862;28;45416;-76
2023/03/29 10:35:49;;;;;;;;;5.67;5.00;;;;;18.29;52.87;101014.94;5049959;28;45381;-73
2023/03/29 10:38:18;;;;;;;;;6.00;3.67;;;;;18.30;52.59;101007.75;5042691;28;45538;-76
2023/03/29 10:40:53;;;;;;;;;3.33;3.33;;;;;18.32;52.46;100998.72;5048822;28;45797;-78
2023/03/29 10:43:21;;;;;;;;;8.67;5.00;;;;;18.26;51.81;100973.47;5046749;28;45314;-76
2023/03/29 10:45:52;;;;;;;;;3.00;3.00;;;;;18.64;51.59;101003.16;5050476;28;45626;-77
2023/03/29 10:48:26;;;;;;;;;8.00;5.00;;;;;18.46;51.47;100960.81;5046730;28;45532;-78
2023/03/29 10:51:04;;;;;;;;;6.00;6.00;;;;;18.67;51.05;100984.19;5051737;28;45267;-81
2023/03/29 10:53:36;;;;;;;;;5.00;5.00;;;;;18.85;50.77;101006.75;5049703;28;45458;-77
2023/03/29 10:56:25;;;;;;;;;6.33;4.00;;;;;18.89;50.17;101000.38;5052462;28;45516;-74
2023/03/29 10:59:16;;;;;;;;;9.67;6.33;;;;;18.92;49.60;100989.56;5042854;28;46324;-74
2023/03/29 11:02:03;;;;;;;;;6.33;5.00;;;;;18.70;49.58;100937.28;5049023;28;45412;-76
2023/03/29 11:04:46;;;;;;;;;7.00;5.67;;;;;19.02;47.97;100991.31;5049997;28;45764;-74
2023/03/29 11:07:31;;;;;;;;;6.33;3.33;;;;;19.01;46.75;100985.94;5043504;28;45359;-80
2023/03/29 11:10:09;;;;;;;;;9.00;7.33;;;;;19.16;46.20;100985.84;5053341;28;46766;-77
2023/03/29 11:12:41;;;;;;;;;4.67;3.00;;;;;19.23;44.53;100982.19;5056084;28;45538;-80
2023/03/29 11:15:11;;;;;;;;;5.33;4.33;;;;;19.29;43.62;100976.72;5047669;28;45420;-81
2023/03/29 11:18:05;;;;;;;;;6.00;4.67;;;;;19.30;43.49;100967.72;5052907;28;45521;-80
2023/03/29 11:21:07;;;;;;;;;6.00;5.67;;;;;19.46;42.73;100971.19;5048506;28;47367;-80
2023/03/29 11:23:36;;;;;;;;;4.33;3.00;;;;;19.54;42.37;100976.56;5043394;28;45726;-79
2023/03/29 11:26:10;;;;;;;;;6.67;4.00;;;;;19.28;40.62;100915.31;5045990;28;45662;-77
2023/03/29 11:28:36;;;;;;;;;3.33;2.67;;;;;19.64;40.53;100970.16;5059177;28;45365;-78
2023/03/29 11:31:15;;;;;;;;;2.00;1.00;;;;;19.67;40.56;100980.09;5057507;28;45629;-79